sensor_id;sensor_type;location;lat;lon;timestamp;temperature;humidity
53752;DHT22;41095;53.090;6.692;2022-10-04T00:02:23;12.60;99.90
53752;DHT22;41095;53.090;6.692;2022-10-04T00:05:00;12.60;99.90
53752;DHT22;41095;53.090;6.692;2022-10-04T00:07:34;12.60;99.90
53752;DHT22;41095;53.090;6.692;2022-10-04T00:10:22;12.60;99.90
53752;DHT22;41095;53.090;6.692;2022-10-04T00:13:01;12.70;99.90
53752;DHT22;41095;53.090;6.692;2022-10-04T00:15:32;12.60;99.90
53752;DHT22;41095;53.090;6.692;2022-10-04T00:18:27;12.60;99.90
53752;DHT22;41095;53.090;6.692;2022-10-04T00:20:57;12.60;99.90
53752;DHT22;41095;53.090;6.692;2022-10-04T00:25:50;12.60;99.90
53752;DHT22;41095;53.090;6.692;2022-10-04T00:31:12;12.60;99.90
53752;DHT22;41095;53.090;6.692;2022-10-04T00:36:30;12.60;99.90
53752;DHT22;41095;53.090;6.692;2022-10-04T00:41:57;12.50;99.90
53752;DHT22;41095;53.090;6.692;2022-10-04T00:47:53;12.60;99.90
53752;DHT22;41095;53.090;6.692;2022-10-04T00:50:42;12.50;99.90
53752;DHT22;41095;53.090;6.692;2022-10-04T00:53:18;12.50;99.90
53752;DHT22;41095;53.090;6.692;2022-10-04T00:55:59;12.40;99.90
53752;DHT22;41095;53.090;6.692;2022-10-04T00:58:30;12.50;99.90
53752;DHT22;41095;53.090;6.692;2022-10-04T01:00:58;12.40;99.90
53752;DHT22;41095;53.090;6.692;2022-10-04T01:03:38;12.40;99.90
53752;DHT22;41095;53.090;6.692;2022-10-04T01:06:09;12.40;99.90
53752;DHT22;41095;53.090;6.692;2022-10-04T01:08:43;12.40;99.90
53752;DHT22;41095;53.090;6.692;2022-10-04T01:11:18;12.40;99.90
53752;DHT22;41095;53.090;6.692;2022-10-04T01:13:47;12.40;99.90
53752;DHT22;41095;53.090;6.692;2022-10-04T01:16:23;12.30;99.90
53752;DHT22;41095;53.090;6.692;2022-10-04T01:18:50;12.40;99.90
53752;DHT22;41095;53.090;6.692;2022-10-04T01:29:22;12.30;99.90
53752;DHT22;41095;53.090;6.692;2022-10-04T01:31:51;12.20;99.90
53752;DHT22;41095;53.090;6.692;2022-10-04T01:34:20;12.20;99.90
53752;DHT22;41095;53.090;6.692;2022-10-04T01:36:47;12.20;99.90
53752;DHT22;41095;53.090;6.692;2022-10-04T01:39:15;12.30;99.90
53752;DHT22;41095;53.090;6.692;2022-10-04T01:44:11;12.30;99.90
53752;DHT22;41095;53.090;6.692;2022-10-04T01:46:40;12.30;99.90
53752;DHT22;41095;53.090;6.692;2022-10-04T01:49:10;12.30;99.90
53752;DHT22;41095;53.090;6.692;2022-10-04T01:52:07;12.30;99.90
53752;DHT22;41095;53.090;6.692;2022-10-04T01:54:41;12.30;99.90
53752;DHT22;41095;53.090;6.692;2022-10-04T01:57:20;12.30;99.90
53752;DHT22;41095;53.090;6.692;2022-10-04T01:59:55;12.20;99.90
53752;DHT22;41095;53.090;6.692;2022-10-04T02:05:43;12.20;99.90
53752;DHT22;41095;53.090;6.692;2022-10-04T02:08:15;12.20;99.90
53752;DHT22;41095;53.090;6.692;2022-10-04T02:10:44;12.20;99.90
53752;DHT22;41095;53.090;6.692;2022-10-04T02:13:13;12.20;99.90
53752;DHT22;41095;53.090;6.692;2022-10-04T02:15:43;12.20;99.90
53752;DHT22;41095;53.090;6.692;2022-10-04T02:18:20;12.10;99.90
53752;DHT22;41095;53.090;6.692;2022-10-04T02:20:48;12.20;99.90
53752;DHT22;41095;53.090;6.692;2022-10-04T02:23:17;12.10;99.90
53752;DHT22;41095;53.090;6.692;2022-10-04T02:25:43;12.10;99.90
53752;DHT22;41095;53.090;6.692;2022-10-04T02:28:10;12.10;99.90
53752;DHT22;41095;53.090;6.692;2022-10-04T02:30:40;12.00;99.90
53752;DHT22;41095;53.090;6.692;2022-10-04T02:33:06;12.00;99.90
53752;DHT22;41095;53.090;6.692;2022-10-04T02:35:42;12.00;99.90
53752;DHT22;41095;53.090;6.692;2022-10-04T02:41:18;11.90;99.90
53752;DHT22;41095;53.090;6.692;2022-10-04T02:43:53;11.80;99.90
53752;DHT22;41095;53.090;6.692;2022-10-04T02:46:33;11.80;99.90
53752;DHT22;41095;53.090;6.692;2022-10-04T02:49:05;11.80;99.90
53752;DHT22;41095;53.090;6.692;2022-10-04T02:51:41;11.80;99.90
53752;DHT22;41095;53.090;6.692;2022-10-04T02:56:53;11.80;99.90
53752;DHT22;41095;53.090;6.692;2022-10-04T02:59:20;11.70;99.90
53752;DHT22;41095;53.090;6.692;2022-10-04T03:01:59;11.70;99.90
53752;DHT22;41095;53.090;6.692;2022-10-04T03:04:32;11.70;99.90
53752;DHT22;41095;53.090;6.692;2022-10-04T03:07:00;11.70;99.90
53752;DHT22;41095;53.090;6.692;2022-10-04T03:09:28;11.70;99.90
53752;DHT22;41095;53.090;6.692;2022-10-04T03:11:54;11.60;99.90
53752;DHT22;41095;53.090;6.692;2022-10-04T03:14:23;11.60;99.90
53752;DHT22;41095;53.090;6.692;2022-10-04T03:16:52;11.60;99.90
53752;DHT22;41095;53.090;6.692;2022-10-04T03:19:22;11.60;99.90
53752;DHT22;41095;53.090;6.692;2022-10-04T03:21:52;11.60;99.90
53752;DHT22;41095;53.090;6.692;2022-10-04T03:24:31;11.60;99.90
53752;DHT22;41095;53.090;6.692;2022-10-04T03:27:00;11.60;99.90
53752;DHT22;41095;53.090;6.692;2022-10-04T03:29:30;11.70;99.90
53752;DHT22;41095;53.090;6.692;2022-10-04T03:31:57;11.70;99.90
53752;DHT22;41095;53.090;6.692;2022-10-04T03:34:33;11.70;99.90
53752;DHT22;41095;53.090;6.692;2022-10-04T03:37:00;11.70;99.90
53752;DHT22;41095;53.090;6.692;2022-10-04T03:39:30;11.70;99.90
53752;DHT22;41095;53.090;6.692;2022-10-04T03:42:00;11.70;99.90
53752;DHT22;41095;53.090;6.692;2022-10-04T03:44:27;11.70;99.90
53752;DHT22;41095;53.090;6.692;2022-10-04T03:46:53;11.70;99.90
53752;DHT22;41095;53.090;6.692;2022-10-04T03:49:31;11.60;99.90
53752;DHT22;41095;53.090;6.692;2022-10-04T03:51:59;11.60;99.90
53752;DHT22;41095;53.090;6.692;2022-10-04T03:54:26;11.60;99.90
53752;DHT22;41095;53.090;6.692;2022-10-04T03:56:53;11.60;99.90
53752;DHT22;41095;53.090;6.692;2022-10-04T03:59:20;11.50;99.90
53752;DHT22;41095;53.090;6.692;2022-10-04T04:01:50;11.50;99.90
53752;DHT22;41095;53.090;6.692;2022-10-04T04:07:29;11.50;99.90
53752;DHT22;41095;53.090;6.692;2022-10-04T04:10:03;11.40;99.90
53752;DHT22;41095;53.090;6.692;2022-10-04T04:15:46;11.40;99.90
53752;DHT22;41095;53.090;6.692;2022-10-04T04:18:19;11.40;99.90
53752;DHT22;41095;53.090;6.692;2022-10-04T04:20:48;11.40;99.90
53752;DHT22;41095;53.090;6.692;2022-10-04T04:23:27;11.40;99.90
53752;DHT22;41095;53.090;6.692;2022-10-04T04:25:59;11.40;99.90
53752;DHT22;41095;53.090;6.692;2022-10-04T04:28:33;11.40;99.90
53752;DHT22;41095;53.090;6.692;2022-10-04T04:31:17;11.40;99.90
53752;DHT22;41095;53.090;6.692;2022-10-04T04:34:05;11.40;99.90
53752;DHT22;41095;53.090;6.692;2022-10-04T04:36:40;11.40;99.90
53752;DHT22;41095;53.090;6.692;2022-10-04T04:39:17;11.40;99.90
53752;DHT22;41095;53.090;6.692;2022-10-04T04:42:21;11.30;99.90
53752;DHT22;41095;53.090;6.692;2022-10-04T04:44:59;11.30;99.90
53752;DHT22;41095;53.090;6.692;2022-10-04T04:47:41;11.30;99.90
53752;DHT22;41095;53.090;6.692;2022-10-04T04:50:17;11.30;99.90
53752;DHT22;41095;53.090;6.692;2022-10-04T04:52:50;11.30;99.90
53752;DHT22;41095;53.090;6.692;2022-10-04T04:55:23;11.20;99.90
53752;DHT22;41095;53.090;6.692;2022-10-04T04:57:51;11.20;99.90
53752;DHT22;41095;53.090;6.692;2022-10-04T05:00:28;11.10;99.90
53752;DHT22;41095;53.090;6.692;2022-10-04T05:02:56;11.20;99.90
53752;DHT22;41095;53.090;6.692;2022-10-04T05:05:27;11.10;99.90
53752;DHT22;41095;53.090;6.692;2022-10-04T05:08:17;11.10;99.90
53752;DHT22;41095;53.090;6.692;2022-10-04T05:13:20;11.10;99.90
53752;DHT22;41095;53.090;6.692;2022-10-04T05:15:51;11.10;99.90
53752;DHT22;41095;53.090;6.692;2022-10-04T05:18:29;11.10;99.90
53752;DHT22;41095;53.090;6.692;2022-10-04T05:20:57;11.10;99.90
53752;DHT22;41095;53.090;6.692;2022-10-04T05:23:24;11.10;99.90
53752;DHT22;41095;53.090;6.692;2022-10-04T05:25:50;11.10;99.90
53752;DHT22;41095;53.090;6.692;2022-10-04T05:28:16;11.10;99.90
53752;DHT22;41095;53.090;6.692;2022-10-04T05:33:53;11.10;99.90
53752;DHT22;41095;53.090;6.692;2022-10-04T05:39:09;11.00;99.90
53752;DHT22;41095;53.090;6.692;2022-10-04T05:44:49;10.90;99.90
53752;DHT22;41095;53.090;6.692;2022-10-04T05:47:26;10.90;99.90
53752;DHT22;41095;53.090;6.692;2022-10-04T05:49:58;10.80;99.90
53752;DHT22;41095;53.090;6.692;2022-10-04T05:52:32;10.80;99.90
53752;DHT22;41095;53.090;6.692;2022-10-04T05:58:16;10.80;99.90
53752;DHT22;41095;53.090;6.692;2022-10-04T06:06:14;10.80;99.90
53752;DHT22;41095;53.090;6.692;2022-10-04T06:22:47;10.70;99.90
53752;DHT22;41095;53.090;6.692;2022-10-04T06:25:30;10.70;99.90
53752;DHT22;41095;53.090;6.692;2022-10-04T06:31:19;10.70;99.90
53752;DHT22;41095;53.090;6.692;2022-10-04T06:37:09;10.80;99.90
53752;DHT22;41095;53.090;6.692;2022-10-04T06:53:23;11.30;99.90
53752;DHT22;41095;53.090;6.692;2022-10-04T06:59:07;11.50;99.90
53752;DHT22;41095;53.090;6.692;2022-10-04T07:01:53;11.60;99.90
53752;DHT22;41095;53.090;6.692;2022-10-04T07:07:44;11.90;99.90
53752;DHT22;41095;53.090;6.692;2022-10-04T07:15:43;12.10;99.90
53752;DHT22;41095;53.090;6.692;2022-10-04T07:18:14;12.20;99.90
53752;DHT22;41095;53.090;6.692;2022-10-04T07:20:41;12.20;99.90
53752;DHT22;41095;53.090;6.692;2022-10-04T07:23:14;12.30;99.90
53752;DHT22;41095;53.090;6.692;2022-10-04T07:25:51;12.40;99.90
53752;DHT22;41095;53.090;6.692;2022-10-04T07:28:25;12.60;99.90
53752;DHT22;41095;53.090;6.692;2022-10-04T07:31:30;12.70;99.90
53752;DHT22;41095;53.090;6.692;2022-10-04T07:36:49;13.00;99.90
53752;DHT22;41095;53.090;6.692;2022-10-04T07:39:20;13.20;99.90
53752;DHT22;41095;53.090;6.692;2022-10-04T07:41:51;13.40;99.90
53752;DHT22;41095;53.090;6.692;2022-10-04T07:49:28;13.50;99.90
53752;DHT22;41095;53.090;6.692;2022-10-04T07:55:17;13.80;99.90
53752;DHT22;41095;53.090;6.692;2022-10-04T07:57:55;14.10;99.90
53752;DHT22;41095;53.090;6.692;2022-10-04T08:06:12;14.60;99.90
53752;DHT22;41095;53.090;6.692;2022-10-04T08:09:06;14.60;99.90
53752;DHT22;41095;53.090;6.692;2022-10-04T08:11:40;14.50;99.90
53752;DHT22;41095;53.090;6.692;2022-10-04T08:14:42;14.60;99.90
53752;DHT22;41095;53.090;6.692;2022-10-04T08:17:36;14.60;99.90
53752;DHT22;41095;53.090;6.692;2022-10-04T08:20:35;14.50;99.90
53752;DHT22;41095;53.090;6.692;2022-10-04T08:23:26;14.40;99.90
53752;DHT22;41095;53.090;6.692;2022-10-04T08:28:47;14.10;99.90
53752;DHT22;41095;53.090;6.692;2022-10-04T08:34:37;14.70;99.90
53752;DHT22;41095;53.090;6.692;2022-10-04T08:57:31;22.00;96.50
53752;DHT22;41095;53.090;6.692;2022-10-04T09:03:12;22.10;99.90
53752;DHT22;41095;53.090;6.692;2022-10-04T09:11:32;22.70;99.70
53752;DHT22;41095;53.090;6.692;2022-10-04T09:17:20;22.80;97.50
53752;DHT22;41095;53.090;6.692;2022-10-04T09:33:53;22.30;94.80
53752;DHT22;41095;53.090;6.692;2022-10-04T09:39:11;22.60;94.30
53752;DHT22;41095;53.090;6.692;2022-10-04T09:42:09;22.50;94.50
53752;DHT22;41095;53.090;6.692;2022-10-04T09:47:44;23.00;92.50
53752;DHT22;41095;53.090;6.692;2022-10-04T09:51:09;23.80;93.80
53752;DHT22;41095;53.090;6.692;2022-10-04T09:57:18;23.00;91.40
53752;DHT22;41095;53.090;6.692;2022-10-04T09:59:50;23.40;91.40
53752;DHT22;41095;53.090;6.692;2022-10-04T10:05:29;24.00;90.70
53752;DHT22;41095;53.090;6.692;2022-10-04T10:14:01;24.90;91.20
53752;DHT22;41095;53.090;6.692;2022-10-04T10:22:25;24.50;92.20
53752;DHT22;41095;53.090;6.692;2022-10-04T10:36:56;21.40;94.10
53752;DHT22;41095;53.090;6.692;2022-10-04T10:56:30;18.40;99.90
53752;DHT22;41095;53.090;6.692;2022-10-04T11:05:22;18.20;99.90
53752;DHT22;41095;53.090;6.692;2022-10-04T11:08:02;18.20;99.90
53752;DHT22;41095;53.090;6.692;2022-10-04T11:28:44;18.10;99.90
53752;DHT22;41095;53.090;6.692;2022-10-04T11:31:42;18.10;99.90
53752;DHT22;41095;53.090;6.692;2022-10-04T11:37:11;18.00;99.90
53752;DHT22;41095;53.090;6.692;2022-10-04T11:57:38;18.10;99.90
53752;DHT22;41095;53.090;6.692;2022-10-04T12:10:38;18.10;99.90
53752;DHT22;41095;53.090;6.692;2022-10-04T12:16:09;18.20;99.90
53752;DHT22;41095;53.090;6.692;2022-10-04T12:21:45;18.30;99.90
53752;DHT22;41095;53.090;6.692;2022-10-04T12:24:24;18.30;99.70
53752;DHT22;41095;53.090;6.692;2022-10-04T12:46:20;18.50;99.90
53752;DHT22;41095;53.090;6.692;2022-10-04T12:57:59;18.70;99.40
53752;DHT22;41095;53.090;6.692;2022-10-04T13:00:18;18.60;99.30
53752;DHT22;41095;53.090;6.692;2022-10-04T13:03:04;18.70;99.90
53752;DHT22;41095;53.090;6.692;2022-10-04T13:05:48;18.70;99.40
53752;DHT22;41095;53.090;6.692;2022-10-04T13:14:36;18.80;99.90
53752;DHT22;41095;53.090;6.692;2022-10-04T13:17:37;18.80;99.10
53752;DHT22;41095;53.090;6.692;2022-10-04T13:20:27;18.80;99.80
53752;DHT22;41095;53.090;6.692;2022-10-04T13:28:57;18.70;99.90
53752;DHT22;41095;53.090;6.692;2022-10-04T13:31:47;18.60;99.50
53752;DHT22;41095;53.090;6.692;2022-10-04T13:37:03;18.60;99.00
53752;DHT22;41095;53.090;6.692;2022-10-04T13:53:28;18.70;99.90
53752;DHT22;41095;53.090;6.692;2022-10-04T14:29:39;18.00;99.90
53752;DHT22;41095;53.090;6.692;2022-10-04T14:43:19;17.90;99.90
53752;DHT22;41095;53.090;6.692;2022-10-04T15:00:26;18.10;99.90
53752;DHT22;41095;53.090;6.692;2022-10-04T15:03:47;18.00;99.90
53752;DHT22;41095;53.090;6.692;2022-10-04T15:05:57;18.00;99.90
53752;DHT22;41095;53.090;6.692;2022-10-04T15:08:43;18.00;99.90
53752;DHT22;41095;53.090;6.692;2022-10-04T15:11:35;17.90;99.90
53752;DHT22;41095;53.090;6.692;2022-10-04T15:14:21;17.80;99.90
53752;DHT22;41095;53.090;6.692;2022-10-04T15:16:58;17.70;99.90
53752;DHT22;41095;53.090;6.692;2022-10-04T15:19:43;17.70;99.90
53752;DHT22;41095;53.090;6.692;2022-10-04T15:22:40;17.50;99.90
53752;DHT22;41095;53.090;6.692;2022-10-04T15:25:44;17.40;99.90
53752;DHT22;41095;53.090;6.692;2022-10-04T15:28:32;17.30;99.90
53752;DHT22;41095;53.090;6.692;2022-10-04T15:33:37;17.20;99.90
53752;DHT22;41095;53.090;6.692;2022-10-04T15:38:51;17.10;99.90
53752;DHT22;41095;53.090;6.692;2022-10-04T15:47:13;17.00;99.90
53752;DHT22;41095;53.090;6.692;2022-10-04T15:52:52;17.00;99.90
53752;DHT22;41095;53.090;6.692;2022-10-04T16:01:03;17.00;99.90
53752;DHT22;41095;53.090;6.692;2022-10-04T16:06:25;16.90;99.90
53752;DHT22;41095;53.090;6.692;2022-10-04T16:09:17;16.90;99.90
53752;DHT22;41095;53.090;6.692;2022-10-04T16:20:02;16.80;99.90
53752;DHT22;41095;53.090;6.692;2022-10-04T16:22:37;16.70;99.90
53752;DHT22;41095;53.090;6.692;2022-10-04T16:28:06;16.60;99.90
53752;DHT22;41095;53.090;6.692;2022-10-04T16:30:49;16.60;99.90
53752;DHT22;41095;53.090;6.692;2022-10-04T16:33:36;16.50;99.90
53752;DHT22;41095;53.090;6.692;2022-10-04T16:36:17;16.40;99.90
53752;DHT22;41095;53.090;6.692;2022-10-04T16:38:48;16.40;99.90
53752;DHT22;41095;53.090;6.692;2022-10-04T16:41:40;16.20;99.90
53752;DHT22;41095;53.090;6.692;2022-10-04T16:46:49;16.20;99.90
53752;DHT22;41095;53.090;6.692;2022-10-04T16:49:36;16.10;99.90
53752;DHT22;41095;53.090;6.692;2022-10-04T16:57:44;15.80;99.90
53752;DHT22;41095;53.090;6.692;2022-10-04T17:00:32;15.80;99.90
53752;DHT22;41095;53.090;6.692;2022-10-04T17:03:24;16.10;99.90
53752;DHT22;41095;53.090;6.692;2022-10-04T17:06:13;15.70;99.90
53752;DHT22;41095;53.090;6.692;2022-10-04T17:08:45;15.50;99.90
53752;DHT22;41095;53.090;6.692;2022-10-04T17:11:42;15.50;99.90
53752;DHT22;41095;53.090;6.692;2022-10-04T17:20:11;15.40;99.90
53752;DHT22;41095;53.090;6.692;2022-10-04T17:22:56;15.40;99.90
53752;DHT22;41095;53.090;6.692;2022-10-04T17:25:41;15.40;99.90
53752;DHT22;41095;53.090;6.692;2022-10-04T17:28:26;15.40;99.90
53752;DHT22;41095;53.090;6.692;2022-10-04T17:31:09;15.40;99.90
53752;DHT22;41095;53.090;6.692;2022-10-04T17:36:42;15.40;99.90
53752;DHT22;41095;53.090;6.692;2022-10-04T17:47:24;15.30;99.90
53752;DHT22;41095;53.090;6.692;2022-10-04T17:50:13;15.30;99.90
53752;DHT22;41095;53.090;6.692;2022-10-04T17:53:03;15.20;99.90
53752;DHT22;41095;53.090;6.692;2022-10-04T17:55:54;15.20;99.90
53752;DHT22;41095;53.090;6.692;2022-10-04T17:58:36;15.20;99.90
53752;DHT22;41095;53.090;6.692;2022-10-04T18:01:12;15.20;99.90
53752;DHT22;41095;53.090;6.692;2022-10-04T18:03:50;15.20;99.90
53752;DHT22;41095;53.090;6.692;2022-10-04T18:06:32;15.20;99.90
53752;DHT22;41095;53.090;6.692;2022-10-04T18:11:50;15.20;99.90
53752;DHT22;41095;53.090;6.692;2022-10-04T18:17:23;15.30;99.90
53752;DHT22;41095;53.090;6.692;2022-10-04T18:20:15;15.30;99.90
53752;DHT22;41095;53.090;6.692;2022-10-04T18:22:47;15.30;99.90
53752;DHT22;41095;53.090;6.692;2022-10-04T18:25:19;15.30;99.90
53752;DHT22;41095;53.090;6.692;2022-10-04T18:30:55;15.30;99.90
53752;DHT22;41095;53.090;6.692;2022-10-04T18:33:43;15.30;99.90
53752;DHT22;41095;53.090;6.692;2022-10-04T18:36:21;15.30;99.90
53752;DHT22;41095;53.090;6.692;2022-10-04T18:39:21;15.40;99.90
53752;DHT22;41095;53.090;6.692;2022-10-04T18:42:10;15.40;99.90
53752;DHT22;41095;53.090;6.692;2022-10-04T18:44:48;15.40;99.90
53752;DHT22;41095;53.090;6.692;2022-10-04T18:49:59;15.40;99.90
53752;DHT22;41095;53.090;6.692;2022-10-04T18:57:36;15.40;99.90
53752;DHT22;41095;53.090;6.692;2022-10-04T19:00:23;15.40;99.90
53752;DHT22;41095;53.090;6.692;2022-10-04T19:08:54;15.40;99.90
53752;DHT22;41095;53.090;6.692;2022-10-04T19:11:26;15.40;99.90
53752;DHT22;41095;53.090;6.692;2022-10-04T19:27:48;15.50;99.90
53752;DHT22;41095;53.090;6.692;2022-10-04T19:30:25;15.50;99.90
53752;DHT22;41095;53.090;6.692;2022-10-04T19:33:18;15.50;99.90
53752;DHT22;41095;53.090;6.692;2022-10-04T19:38:54;15.60;99.90
53752;DHT22;41095;53.090;6.692;2022-10-04T19:41:40;15.60;99.90
53752;DHT22;41095;53.090;6.692;2022-10-04T19:49:51;15.60;99.90
53752;DHT22;41095;53.090;6.692;2022-10-04T19:57:49;15.60;99.90
53752;DHT22;41095;53.090;6.692;2022-10-04T20:00:15;15.60;99.90
53752;DHT22;41095;53.090;6.692;2022-10-04T20:02:44;15.60;99.90
53752;DHT22;41095;53.090;6.692;2022-10-04T20:05:18;15.60;99.90
53752;DHT22;41095;53.090;6.692;2022-10-04T20:07:50;15.60;99.90
53752;DHT22;41095;53.090;6.692;2022-10-04T20:10:33;15.60;99.90
53752;DHT22;41095;53.090;6.692;2022-10-04T20:13:21;15.70;99.90
53752;DHT22;41095;53.090;6.692;2022-10-04T20:15:55;15.60;99.90
53752;DHT22;41095;53.090;6.692;2022-10-04T20:26:34;15.60;99.90
53752;DHT22;41095;53.090;6.692;2022-10-04T20:29:55;15.60;99.90
53752;DHT22;41095;53.090;6.692;2022-10-04T20:34:56;15.60;99.90
53752;DHT22;41095;53.090;6.692;2022-10-04T20:45:48;15.60;99.90
53752;DHT22;41095;53.090;6.692;2022-10-04T20:48:25;15.60;99.90
53752;DHT22;41095;53.090;6.692;2022-10-04T20:50:52;15.60;99.90
53752;DHT22;41095;53.090;6.692;2022-10-04T20:53:29;15.50;99.90
53752;DHT22;41095;53.090;6.692;2022-10-04T20:56:21;15.60;99.90
53752;DHT22;41095;53.090;6.692;2022-10-04T20:58:58;15.50;99.90
53752;DHT22;41095;53.090;6.692;2022-10-04T21:01:32;15.50;99.90
53752;DHT22;41095;53.090;6.692;2022-10-04T21:04:23;15.50;99.90
53752;DHT22;41095;53.090;6.692;2022-10-04T21:06:59;15.50;99.90
53752;DHT22;41095;53.090;6.692;2022-10-04T21:09:26;15.50;99.90
53752;DHT22;41095;53.090;6.692;2022-10-04T21:11:54;15.50;99.90
53752;DHT22;41095;53.090;6.692;2022-10-04T21:14:24;15.50;99.90
53752;DHT22;41095;53.090;6.692;2022-10-04T21:16:58;15.50;99.90
53752;DHT22;41095;53.090;6.692;2022-10-04T21:22:04;15.50;99.90
53752;DHT22;41095;53.090;6.692;2022-10-04T21:27:04;15.50;99.90
53752;DHT22;41095;53.090;6.692;2022-10-04T21:29:30;15.60;99.90
53752;DHT22;41095;53.090;6.692;2022-10-04T21:31:57;15.50;99.90
53752;DHT22;41095;53.090;6.692;2022-10-04T21:34:23;15.60;99.90
53752;DHT22;41095;53.090;6.692;2022-10-04T21:36:49;15.50;99.90
53752;DHT22;41095;53.090;6.692;2022-10-04T21:39:15;15.50;99.90
53752;DHT22;41095;53.090;6.692;2022-10-04T21:41:41;15.50;99.90
53752;DHT22;41095;53.090;6.692;2022-10-04T21:44:06;15.50;99.90
53752;DHT22;41095;53.090;6.692;2022-10-04T21:46:33;15.50;99.90
53752;DHT22;41095;53.090;6.692;2022-10-04T21:48:59;15.50;99.90
53752;DHT22;41095;53.090;6.692;2022-10-04T21:51:25;15.50;99.90
53752;DHT22;41095;53.090;6.692;2022-10-04T21:53:50;15.50;99.90
53752;DHT22;41095;53.090;6.692;2022-10-04T21:56:16;15.50;99.90
53752;DHT22;41095;53.090;6.692;2022-10-04T21:58:42;15.50;99.90
53752;DHT22;41095;53.090;6.692;2022-10-04T22:01:08;15.50;99.90
53752;DHT22;41095;53.090;6.692;2022-10-04T22:03:34;15.50;99.90
53752;DHT22;41095;53.090;6.692;2022-10-04T22:05:59;15.50;99.90
53752;DHT22;41095;53.090;6.692;2022-10-04T22:08:25;15.50;99.90
53752;DHT22;41095;53.090;6.692;2022-10-04T22:10:51;15.60;99.90
53752;DHT22;41095;53.090;6.692;2022-10-04T22:13:17;15.60;99.90
53752;DHT22;41095;53.090;6.692;2022-10-04T22:15:42;15.60;99.90
53752;DHT22;41095;53.090;6.692;2022-10-04T22:18:08;15.50;99.90
53752;DHT22;41095;53.090;6.692;2022-10-04T22:20:35;15.60;99.90
53752;DHT22;41095;53.090;6.692;2022-10-04T22:23:01;15.50;99.90
53752;DHT22;41095;53.090;6.692;2022-10-04T22:25:28;15.60;99.90
53752;DHT22;41095;53.090;6.692;2022-10-04T22:27:54;15.60;99.90
53752;DHT22;41095;53.090;6.692;2022-10-04T22:30:28;15.60;99.90
53752;DHT22;41095;53.090;6.692;2022-10-04T22:33:00;15.60;99.90
53752;DHT22;41095;53.090;6.692;2022-10-04T22:35:28;15.60;99.90
53752;DHT22;41095;53.090;6.692;2022-10-04T22:37:55;15.60;99.90
53752;DHT22;41095;53.090;6.692;2022-10-04T22:40:22;15.60;99.90
53752;DHT22;41095;53.090;6.692;2022-10-04T22:42:54;15.50;99.90
53752;DHT22;41095;53.090;6.692;2022-10-04T22:45:24;15.60;99.90
53752;DHT22;41095;53.090;6.692;2022-10-04T22:47:51;15.50;99.90
53752;DHT22;41095;53.090;6.692;2022-10-04T22:52:52;15.50;99.90
53752;DHT22;41095;53.090;6.692;2022-10-04T22:55:18;15.50;99.90
53752;DHT22;41095;53.090;6.692;2022-10-04T22:57:44;15.50;99.90
53752;DHT22;41095;53.090;6.692;2022-10-04T23:00:11;15.50;99.90
53752;DHT22;41095;53.090;6.692;2022-10-04T23:02:37;15.60;99.90
53752;DHT22;41095;53.090;6.692;2022-10-04T23:05:15;15.60;99.90
53752;DHT22;41095;53.090;6.692;2022-10-04T23:07:42;15.50;99.90
53752;DHT22;41095;53.090;6.692;2022-10-04T23:10:09;15.50;99.90
53752;DHT22;41095;53.090;6.692;2022-10-04T23:12:36;15.50;99.90
53752;DHT22;41095;53.090;6.692;2022-10-04T23:15:02;15.60;99.90
53752;DHT22;41095;53.090;6.692;2022-10-04T23:17:34;15.50;99.90
53752;DHT22;41095;53.090;6.692;2022-10-04T23:20:12;15.60;99.90
53752;DHT22;41095;53.090;6.692;2022-10-04T23:22:39;15.60;99.90
53752;DHT22;41095;53.090;6.692;2022-10-04T23:25:14;15.60;99.90
53752;DHT22;41095;53.090;6.692;2022-10-04T23:27:40;15.60;99.90
53752;DHT22;41095;53.090;6.692;2022-10-04T23:30:14;15.60;99.90
53752;DHT22;41095;53.090;6.692;2022-10-04T23:32:41;15.60;99.90
53752;DHT22;41095;53.090;6.692;2022-10-04T23:35:18;15.60;99.90
53752;DHT22;41095;53.090;6.692;2022-10-04T23:37:45;15.60;99.90
53752;DHT22;41095;53.090;6.692;2022-10-04T23:40:12;15.60;99.90
53752;DHT22;41095;53.090;6.692;2022-10-04T23:42:39;15.60;99.90
53752;DHT22;41095;53.090;6.692;2022-10-04T23:45:20;15.60;99.90
53752;DHT22;41095;53.090;6.692;2022-10-04T23:47:48;15.60;99.90
53752;DHT22;41095;53.090;6.692;2022-10-04T23:50:21;15.60;99.90
53752;DHT22;41095;53.090;6.692;2022-10-04T23:52:49;15.60;99.90
53752;DHT22;41095;53.090;6.692;2022-10-04T23:55:19;15.60;99.90
53752;DHT22;41095;53.090;6.692;2022-10-04T23:57:45;15.60;99.90
